sensor_id;sensor_type;location;lat;lon;timestamp;P1;durP1;ratioP1;P2;durP2;ratioP2
73823;SDS011;62154;54.914;73.444;2022-10-23T00:01:35;5.13;;;1.95;;
73823;SDS011;62154;54.914;73.444;2022-10-23T00:04:09;9.45;;;2.40;;
73823;SDS011;62154;54.914;73.444;2022-10-23T00:06:39;4.43;;;1.60;;
73823;SDS011;62154;54.914;73.444;2022-10-23T00:09:07;5.65;;;2.08;;
73823;SDS011;62154;54.914;73.444;2022-10-23T00:11:37;4.13;;;1.42;;
73823;SDS011;62154;54.914;73.444;2022-10-23T00:14:09;2.90;;;1.17;;
73823;SDS011;62154;54.914;73.444;2022-10-23T00:16:41;4.88;;;1.58;;
73823;SDS011;62154;54.914;73.444;2022-10-23T00:19:09;6.70;;;1.90;;
73823;SDS011;62154;54.914;73.444;2022-10-23T00:21:36;15.73;;;1.90;;
73823;SDS011;62154;54.914;73.444;2022-10-23T00:24:05;10.52;;;3.70;;
73823;SDS011;62154;54.914;73.444;2022-10-23T00:26:33;5.20;;;0.90;;
73823;SDS011;62154;54.914;73.444;2022-10-23T00:29:00;5.15;;;1.23;;
73823;SDS011;62154;54.914;73.444;2022-10-23T00:31:27;5.03;;;1.75;;
73823;SDS011;62154;54.914;73.444;2022-10-23T00:33:54;3.35;;;0.98;;
73823;SDS011;62154;54.914;73.444;2022-10-23T00:36:22;4.47;;;0.88;;
73823;SDS011;62154;54.914;73.444;2022-10-23T00:38:49;5.50;;;1.50;;
73823;SDS011;62154;54.914;73.444;2022-10-23T00:41:18;7.68;;;1.38;;
73823;SDS011;62154;54.914;73.444;2022-10-23T00:46:33;7.45;;;1.45;;
73823;SDS011;62154;54.914;73.444;2022-10-23T00:49:03;4.10;;;1.35;;
73823;SDS011;62154;54.914;73.444;2022-10-23T00:51:32;10.35;;;1.25;;
73823;SDS011;62154;54.914;73.444;2022-10-23T00:54:05;1.90;;;0.60;;
73823;SDS011;62154;54.914;73.444;2022-10-23T00:56:34;3.60;;;0.85;;
73823;SDS011;62154;54.914;73.444;2022-10-23T00:59:04;4.05;;;0.80;;
73823;SDS011;62154;54.914;73.444;2022-10-23T01:01:35;2.55;;;0.90;;
73823;SDS011;62154;54.914;73.444;2022-10-23T01:04:03;2.58;;;0.80;;
73823;SDS011;62154;54.914;73.444;2022-10-23T01:12:14;2.30;;;1.30;;
73823;SDS011;62154;54.914;73.444;2022-10-23T01:15:01;3.22;;;1.10;;
73823;SDS011;62154;54.914;73.444;2022-10-23T01:25:57;8.00;;;4.65;;
73823;SDS011;62154;54.914;73.444;2022-10-23T01:31:35;3.78;;;1.55;;
73823;SDS011;62154;54.914;73.444;2022-10-23T01:34:11;1.70;;;0.98;;
73823;SDS011;62154;54.914;73.444;2022-10-23T01:36:45;10.40;;;3.88;;
73823;SDS011;62154;54.914;73.444;2022-10-23T01:39:26;4.32;;;1.45;;
73823;SDS011;62154;54.914;73.444;2022-10-23T01:42:05;2.85;;;1.20;;
73823;SDS011;62154;54.914;73.444;2022-10-23T01:44:43;4.18;;;1.23;;
73823;SDS011;62154;54.914;73.444;2022-10-23T01:47:24;2.08;;;1.00;;
73823;SDS011;62154;54.914;73.444;2022-10-23T01:50:02;4.13;;;1.35;;
73823;SDS011;62154;54.914;73.444;2022-10-23T01:52:32;7.40;;;2.35;;
73823;SDS011;62154;54.914;73.444;2022-10-23T01:55:02;11.90;;;2.40;;
73823;SDS011;62154;54.914;73.444;2022-10-23T01:57:32;12.77;;;3.13;;
73823;SDS011;62154;54.914;73.444;2022-10-23T02:00:12;15.68;;;3.45;;
73823;SDS011;62154;54.914;73.444;2022-10-23T02:02:52;13.68;;;3.85;;
73823;SDS011;62154;54.914;73.444;2022-10-23T02:05:27;12.43;;;2.45;;
73823;SDS011;62154;54.914;73.444;2022-10-23T02:07:57;9.38;;;1.38;;
73823;SDS011;62154;54.914;73.444;2022-10-23T02:10:43;3.03;;;1.40;;
73823;SDS011;62154;54.914;73.444;2022-10-23T02:13:31;3.13;;;1.42;;
73823;SDS011;62154;54.914;73.444;2022-10-23T02:25:02;4.68;;;2.97;;
73823;SDS011;62154;54.914;73.444;2022-10-23T02:27:31;11.90;;;6.10;;
73823;SDS011;62154;54.914;73.444;2022-10-23T02:30:12;7.63;;;2.63;;
73823;SDS011;62154;54.914;73.444;2022-10-23T02:32:57;3.95;;;2.30;;
73823;SDS011;62154;54.914;73.444;2022-10-23T02:35:25;4.57;;;2.50;;
73823;SDS011;62154;54.914;73.444;2022-10-23T02:38:27;3.65;;;2.60;;
73823;SDS011;62154;54.914;73.444;2022-10-23T02:41:04;3.65;;;2.50;;
73823;SDS011;62154;54.914;73.444;2022-10-23T02:52:47;4.53;;;2.53;;
73823;SDS011;62154;54.914;73.444;2022-10-23T03:00:56;5.50;;;3.00;;
73823;SDS011;62154;54.914;73.444;2022-10-23T03:03:31;7.95;;;3.97;;
73823;SDS011;62154;54.914;73.444;2022-10-23T03:06:01;4.15;;;2.60;;
73823;SDS011;62154;54.914;73.444;2022-10-23T03:08:29;4.95;;;2.20;;
73823;SDS011;62154;54.914;73.444;2022-10-23T03:11:15;8.05;;;3.10;;
73823;SDS011;62154;54.914;73.444;2022-10-23T03:13:43;8.48;;;4.20;;
73823;SDS011;62154;54.914;73.444;2022-10-23T03:16:10;7.72;;;4.28;;
73823;SDS011;62154;54.914;73.444;2022-10-23T03:18:48;9.38;;;4.88;;
73823;SDS011;62154;54.914;73.444;2022-10-23T03:21:15;9.05;;;4.28;;
73823;SDS011;62154;54.914;73.444;2022-10-23T03:23:41;12.25;;;5.13;;
73823;SDS011;62154;54.914;73.444;2022-10-23T03:26:13;9.65;;;3.63;;
73823;SDS011;62154;54.914;73.444;2022-10-23T03:28:42;6.60;;;3.05;;
73823;SDS011;62154;54.914;73.444;2022-10-23T03:31:19;15.23;;;7.30;;
73823;SDS011;62154;54.914;73.444;2022-10-23T03:33:52;5.15;;;2.42;;
73823;SDS011;62154;54.914;73.444;2022-10-23T03:36:31;5.85;;;2.40;;
73823;SDS011;62154;54.914;73.444;2022-10-23T03:38:58;3.97;;;2.00;;
73823;SDS011;62154;54.914;73.444;2022-10-23T03:41:25;25.10;;;9.88;;
73823;SDS011;62154;54.914;73.444;2022-10-23T03:43:53;14.15;;;5.75;;
73823;SDS011;62154;54.914;73.444;2022-10-23T03:46:21;24.58;;;12.93;;
73823;SDS011;62154;54.914;73.444;2022-10-23T03:48:53;21.70;;;10.27;;
73823;SDS011;62154;54.914;73.444;2022-10-23T03:51:27;54.20;;;23.45;;
73823;SDS011;62154;54.914;73.444;2022-10-23T03:53:53;29.42;;;16.95;;
73823;SDS011;62154;54.914;73.444;2022-10-23T03:56:31;25.77;;;5.43;;
73823;SDS011;62154;54.914;73.444;2022-10-23T03:58:58;8.43;;;4.13;;
73823;SDS011;62154;54.914;73.444;2022-10-23T04:01:26;13.95;;;6.07;;
73823;SDS011;62154;54.914;73.444;2022-10-23T04:03:53;8.98;;;5.53;;
73823;SDS011;62154;54.914;73.444;2022-10-23T04:06:22;10.80;;;4.90;;
73823;SDS011;62154;54.914;73.444;2022-10-23T04:08:53;6.20;;;3.45;;
73823;SDS011;62154;54.914;73.444;2022-10-23T04:11:21;7.22;;;4.05;;
73823;SDS011;62154;54.914;73.444;2022-10-23T04:13:58;9.75;;;2.92;;
73823;SDS011;62154;54.914;73.444;2022-10-23T04:16:25;8.13;;;4.05;;
73823;SDS011;62154;54.914;73.444;2022-10-23T04:18:52;10.38;;;3.55;;
73823;SDS011;62154;54.914;73.444;2022-10-23T04:21:19;7.53;;;2.95;;
73823;SDS011;62154;54.914;73.444;2022-10-23T04:23:51;10.65;;;5.18;;
73823;SDS011;62154;54.914;73.444;2022-10-23T04:26:19;7.72;;;4.07;;
73823;SDS011;62154;54.914;73.444;2022-10-23T04:28:45;11.98;;;4.82;;
73823;SDS011;62154;54.914;73.444;2022-10-23T04:31:12;12.38;;;7.22;;
73823;SDS011;62154;54.914;73.444;2022-10-23T04:33:41;6.35;;;4.20;;
73823;SDS011;62154;54.914;73.444;2022-10-23T04:36:08;7.82;;;4.68;;
73823;SDS011;62154;54.914;73.444;2022-10-23T04:38:35;11.93;;;5.97;;
73823;SDS011;62154;54.914;73.444;2022-10-23T04:41:05;13.43;;;8.15;;
73823;SDS011;62154;54.914;73.444;2022-10-23T04:43:33;7.80;;;4.18;;
73823;SDS011;62154;54.914;73.444;2022-10-23T04:46:02;11.40;;;4.35;;
73823;SDS011;62154;54.914;73.444;2022-10-23T04:48:30;9.20;;;4.68;;
73823;SDS011;62154;54.914;73.444;2022-10-23T04:51:16;13.82;;;6.25;;
73823;SDS011;62154;54.914;73.444;2022-10-23T04:54:09;14.60;;;5.38;;
73823;SDS011;62154;54.914;73.444;2022-10-23T04:56:48;25.23;;;10.93;;
73823;SDS011;62154;54.914;73.444;2022-10-23T04:59:18;21.42;;;8.43;;
73823;SDS011;62154;54.914;73.444;2022-10-23T05:01:46;29.75;;;13.68;;
73823;SDS011;62154;54.914;73.444;2022-10-23T05:04:13;43.28;;;19.95;;
73823;SDS011;62154;54.914;73.444;2022-10-23T05:07:11;28.02;;;13.38;;
73823;SDS011;62154;54.914;73.444;2022-10-23T05:09:46;25.88;;;14.25;;
73823;SDS011;62154;54.914;73.444;2022-10-23T05:12:36;25.75;;;11.60;;
73823;SDS011;62154;54.914;73.444;2022-10-23T05:15:03;22.40;;;10.88;;
73823;SDS011;62154;54.914;73.444;2022-10-23T05:17:34;16.20;;;7.13;;
73823;SDS011;62154;54.914;73.444;2022-10-23T05:20:04;9.27;;;3.38;;
73823;SDS011;62154;54.914;73.444;2022-10-23T05:22:43;15.98;;;5.70;;
73823;SDS011;62154;54.914;73.444;2022-10-23T05:25:16;22.98;;;10.27;;
73823;SDS011;62154;54.914;73.444;2022-10-23T05:27:49;29.92;;;13.38;;
73823;SDS011;62154;54.914;73.444;2022-10-23T05:30:17;12.60;;;7.13;;
73823;SDS011;62154;54.914;73.444;2022-10-23T05:32:44;10.73;;;5.07;;
73823;SDS011;62154;54.914;73.444;2022-10-23T05:35:16;17.77;;;7.68;;
73823;SDS011;62154;54.914;73.444;2022-10-23T05:37:49;10.55;;;4.93;;
73823;SDS011;62154;54.914;73.444;2022-10-23T05:40:21;9.45;;;5.47;;
73823;SDS011;62154;54.914;73.444;2022-10-23T05:42:53;17.20;;;9.15;;
73823;SDS011;62154;54.914;73.444;2022-10-23T05:45:30;9.70;;;6.30;;
73823;SDS011;62154;54.914;73.444;2022-10-23T05:48:19;25.33;;;13.93;;
73823;SDS011;62154;54.914;73.444;2022-10-23T05:51:09;15.05;;;7.10;;
73823;SDS011;62154;54.914;73.444;2022-10-23T05:54:03;18.67;;;12.82;;
73823;SDS011;62154;54.914;73.444;2022-10-23T05:56:54;9.75;;;6.38;;
73823;SDS011;62154;54.914;73.444;2022-10-23T05:59:29;15.88;;;10.43;;
73823;SDS011;62154;54.914;73.444;2022-10-23T06:02:10;17.88;;;11.70;;
73823;SDS011;62154;54.914;73.444;2022-10-23T06:04:48;15.18;;;7.38;;
73823;SDS011;62154;54.914;73.444;2022-10-23T06:07:39;17.52;;;9.77;;
73823;SDS011;62154;54.914;73.444;2022-10-23T06:10:09;27.20;;;11.88;;
73823;SDS011;62154;54.914;73.444;2022-10-23T06:12:40;19.67;;;8.70;;
73823;SDS011;62154;54.914;73.444;2022-10-23T06:15:11;13.45;;;6.05;;
73823;SDS011;62154;54.914;73.444;2022-10-23T06:17:53;9.57;;;4.90;;
73823;SDS011;62154;54.914;73.444;2022-10-23T06:20:20;8.57;;;4.25;;
73823;SDS011;62154;54.914;73.444;2022-10-23T06:22:58;15.60;;;5.65;;
73823;SDS011;62154;54.914;73.444;2022-10-23T06:25:51;20.88;;;8.65;;
73823;SDS011;62154;54.914;73.444;2022-10-23T06:28:28;12.55;;;6.80;;
73823;SDS011;62154;54.914;73.444;2022-10-23T06:30:55;7.13;;;3.47;;
73823;SDS011;62154;54.914;73.444;2022-10-23T06:33:22;10.57;;;4.88;;
73823;SDS011;62154;54.914;73.444;2022-10-23T06:35:52;11.55;;;5.47;;
73823;SDS011;62154;54.914;73.444;2022-10-23T06:38:21;8.48;;;5.25;;
73823;SDS011;62154;54.914;73.444;2022-10-23T06:40:54;13.23;;;7.47;;
73823;SDS011;62154;54.914;73.444;2022-10-23T06:43:30;10.07;;;5.78;;
73823;SDS011;62154;54.914;73.444;2022-10-23T06:46:16;7.72;;;3.97;;
73823;SDS011;62154;54.914;73.444;2022-10-23T06:49:04;8.02;;;3.20;;
73823;SDS011;62154;54.914;73.444;2022-10-23T06:51:37;4.78;;;3.08;;
73823;SDS011;62154;54.914;73.444;2022-10-23T06:54:09;7.25;;;3.00;;
73823;SDS011;62154;54.914;73.444;2022-10-23T06:57:10;11.77;;;4.28;;
73823;SDS011;62154;54.914;73.444;2022-10-23T06:59:42;13.35;;;7.22;;
73823;SDS011;62154;54.914;73.444;2022-10-23T07:02:09;18.17;;;9.77;;
73823;SDS011;62154;54.914;73.444;2022-10-23T07:04:37;10.38;;;4.63;;
73823;SDS011;62154;54.914;73.444;2022-10-23T07:07:17;32.83;;;13.38;;
73823;SDS011;62154;54.914;73.444;2022-10-23T07:09:47;77.25;;;27.80;;
73823;SDS011;62154;54.914;73.444;2022-10-23T07:12:34;55.40;;;25.15;;
73823;SDS011;62154;54.914;73.444;2022-10-23T07:15:33;42.08;;;18.17;;
73823;SDS011;62154;54.914;73.444;2022-10-23T07:18:01;94.50;;;40.13;;
73823;SDS011;62154;54.914;73.444;2022-10-23T07:20:47;117.93;;;50.85;;
73823;SDS011;62154;54.914;73.444;2022-10-23T07:23:15;21.67;;;10.80;;
73823;SDS011;62154;54.914;73.444;2022-10-23T07:25:43;58.90;;;24.35;;
73823;SDS011;62154;54.914;73.444;2022-10-23T07:28:25;27.63;;;13.43;;
73823;SDS011;62154;54.914;73.444;2022-10-23T07:30:57;65.53;;;33.88;;
73823;SDS011;62154;54.914;73.444;2022-10-23T07:33:31;11.30;;;6.25;;
73823;SDS011;62154;54.914;73.444;2022-10-23T07:36:07;23.73;;;11.57;;
73823;SDS011;62154;54.914;73.444;2022-10-23T07:38:34;15.88;;;6.65;;
73823;SDS011;62154;54.914;73.444;2022-10-23T07:41:01;7.75;;;4.35;;
73823;SDS011;62154;54.914;73.444;2022-10-23T07:43:29;8.15;;;3.70;;
73823;SDS011;62154;54.914;73.444;2022-10-23T07:45:57;8.95;;;6.03;;
73823;SDS011;62154;54.914;73.444;2022-10-23T07:48:32;7.93;;;4.53;;
73823;SDS011;62154;54.914;73.444;2022-10-23T07:51:01;11.40;;;6.78;;
73823;SDS011;62154;54.914;73.444;2022-10-23T07:53:36;9.80;;;6.78;;
73823;SDS011;62154;54.914;73.444;2022-10-23T07:56:24;22.38;;;13.73;;
73823;SDS011;62154;54.914;73.444;2022-10-23T07:59:18;14.68;;;7.35;;
73823;SDS011;62154;54.914;73.444;2022-10-23T08:01:51;11.73;;;6.50;;
73823;SDS011;62154;54.914;73.444;2022-10-23T08:04:23;6.65;;;4.07;;
73823;SDS011;62154;54.914;73.444;2022-10-23T08:06:55;10.85;;;6.70;;
73823;SDS011;62154;54.914;73.444;2022-10-23T08:09:24;9.30;;;6.95;;
73823;SDS011;62154;54.914;73.444;2022-10-23T08:11:51;8.70;;;3.92;;
73823;SDS011;62154;54.914;73.444;2022-10-23T08:14:20;6.47;;;4.20;;
73823;SDS011;62154;54.914;73.444;2022-10-23T08:16:48;11.63;;;4.80;;
73823;SDS011;62154;54.914;73.444;2022-10-23T08:19:15;9.13;;;4.55;;
73823;SDS011;62154;54.914;73.444;2022-10-23T08:21:44;7.40;;;4.53;;
73823;SDS011;62154;54.914;73.444;2022-10-23T08:24:13;5.05;;;3.30;;
73823;SDS011;62154;54.914;73.444;2022-10-23T08:26:43;6.32;;;3.20;;
73823;SDS011;62154;54.914;73.444;2022-10-23T08:29:13;10.13;;;5.88;;
73823;SDS011;62154;54.914;73.444;2022-10-23T08:31:40;9.55;;;5.32;;
73823;SDS011;62154;54.914;73.444;2022-10-23T08:34:14;9.43;;;3.30;;
73823;SDS011;62154;54.914;73.444;2022-10-23T08:36:45;11.35;;;5.18;;
73823;SDS011;62154;54.914;73.444;2022-10-23T08:39:13;15.30;;;7.05;;
73823;SDS011;62154;54.914;73.444;2022-10-23T08:41:53;13.65;;;6.50;;
73823;SDS011;62154;54.914;73.444;2022-10-23T08:44:39;11.93;;;5.97;;
73823;SDS011;62154;54.914;73.444;2022-10-23T08:47:18;8.95;;;4.75;;
73823;SDS011;62154;54.914;73.444;2022-10-23T08:50:21;10.13;;;5.45;;
73823;SDS011;62154;54.914;73.444;2022-10-23T08:56:02;10.73;;;5.38;;
73823;SDS011;62154;54.914;73.444;2022-10-23T09:04:14;6.90;;;3.97;;
73823;SDS011;62154;54.914;73.444;2022-10-23T09:09:44;9.20;;;4.90;;
73823;SDS011;62154;54.914;73.444;2022-10-23T09:12:33;8.20;;;5.80;;
73823;SDS011;62154;54.914;73.444;2022-10-23T09:15:02;16.02;;;10.43;;
73823;SDS011;62154;54.914;73.444;2022-10-23T09:17:53;13.27;;;7.50;;
73823;SDS011;62154;54.914;73.444;2022-10-23T09:20:24;12.05;;;6.50;;
73823;SDS011;62154;54.914;73.444;2022-10-23T09:22:55;19.80;;;11.13;;
73823;SDS011;62154;54.914;73.444;2022-10-23T09:25:26;7.28;;;4.35;;
73823;SDS011;62154;54.914;73.444;2022-10-23T09:27:56;11.70;;;6.70;;
73823;SDS011;62154;54.914;73.444;2022-10-23T09:30:33;9.98;;;6.68;;
73823;SDS011;62154;54.914;73.444;2022-10-23T09:33:14;6.72;;;4.30;;
73823;SDS011;62154;54.914;73.444;2022-10-23T09:35:51;4.20;;;3.05;;
73823;SDS011;62154;54.914;73.444;2022-10-23T09:41:05;11.98;;;5.10;;
73823;SDS011;62154;54.914;73.444;2022-10-23T09:43:43;8.23;;;4.70;;
73823;SDS011;62154;54.914;73.444;2022-10-23T09:46:10;10.95;;;6.78;;
73823;SDS011;62154;54.914;73.444;2022-10-23T09:48:55;12.75;;;7.22;;
73823;SDS011;62154;54.914;73.444;2022-10-23T09:51:23;8.38;;;4.50;;
73823;SDS011;62154;54.914;73.444;2022-10-23T10:01:57;14.57;;;7.75;;
73823;SDS011;62154;54.914;73.444;2022-10-23T10:04:54;13.00;;;6.68;;
73823;SDS011;62154;54.914;73.444;2022-10-23T10:07:28;9.13;;;5.50;;
73823;SDS011;62154;54.914;73.444;2022-10-23T10:09:56;10.80;;;7.07;;
73823;SDS011;62154;54.914;73.444;2022-10-23T10:15:25;9.52;;;6.32;;
73823;SDS011;62154;54.914;73.444;2022-10-23T10:17:59;19.77;;;11.00;;
73823;SDS011;62154;54.914;73.444;2022-10-23T10:23:36;18.40;;;10.95;;
73823;SDS011;62154;54.914;73.444;2022-10-23T10:29:22;33.55;;;15.13;;
73823;SDS011;62154;54.914;73.444;2022-10-23T10:34:50;62.80;;;22.58;;
73823;SDS011;62154;54.914;73.444;2022-10-23T10:56:11;22.60;;;10.63;;
73823;SDS011;62154;54.914;73.444;2022-10-23T11:01:18;22.52;;;12.20;;
73823;SDS011;62154;54.914;73.444;2022-10-23T11:04:44;32.72;;;14.85;;
73823;SDS011;62154;54.914;73.444;2022-10-23T11:07:25;18.80;;;8.40;;
73823;SDS011;62154;54.914;73.444;2022-10-23T11:10:12;16.13;;;6.68;;
73823;SDS011;62154;54.914;73.444;2022-10-23T11:12:43;13.27;;;6.03;;
73823;SDS011;62154;54.914;73.444;2022-10-23T11:15:18;13.25;;;6.57;;
73823;SDS011;62154;54.914;73.444;2022-10-23T11:17:57;12.85;;;8.05;;
73823;SDS011;62154;54.914;73.444;2022-10-23T11:20:40;11.02;;;6.47;;
73823;SDS011;62154;54.914;73.444;2022-10-23T11:40:58;35.88;;;17.45;;
73823;SDS011;62154;54.914;73.444;2022-10-23T11:43:33;30.45;;;14.82;;
73823;SDS011;62154;54.914;73.444;2022-10-23T11:48:51;38.92;;;18.45;;
73823;SDS011;62154;54.914;73.444;2022-10-23T11:51:32;43.47;;;23.33;;
73823;SDS011;62154;54.914;73.444;2022-10-23T11:54:06;29.83;;;15.27;;
73823;SDS011;62154;54.914;73.444;2022-10-23T11:56:37;25.02;;;13.95;;
73823;SDS011;62154;54.914;73.444;2022-10-23T12:00:01;30.90;;;20.13;;
73823;SDS011;62154;54.914;73.444;2022-10-23T12:02:21;14.32;;;9.30;;
73823;SDS011;62154;54.914;73.444;2022-10-23T12:04:52;13.52;;;7.72;;
73823;SDS011;62154;54.914;73.444;2022-10-23T12:09:55;14.40;;;8.05;;
73823;SDS011;62154;54.914;73.444;2022-10-23T12:12:35;21.30;;;9.52;;
73823;SDS011;62154;54.914;73.444;2022-10-23T12:17:37;17.70;;;7.97;;
73823;SDS011;62154;54.914;73.444;2022-10-23T12:38:38;4.95;;;3.83;;
73823;SDS011;62154;54.914;73.444;2022-10-23T12:41:14;6.88;;;5.10;;
73823;SDS011;62154;54.914;73.444;2022-10-23T12:43:53;6.63;;;4.22;;
73823;SDS011;62154;54.914;73.444;2022-10-23T12:46:30;6.95;;;3.65;;
73823;SDS011;62154;54.914;73.444;2022-10-23T12:49:03;6.07;;;4.50;;
73823;SDS011;62154;54.914;73.444;2022-10-23T12:51:54;10.18;;;4.55;;
73823;SDS011;62154;54.914;73.444;2022-10-23T12:54:25;7.03;;;4.47;;
73823;SDS011;62154;54.914;73.444;2022-10-23T12:56:52;8.48;;;4.78;;
73823;SDS011;62154;54.914;73.444;2022-10-23T12:59:23;8.48;;;5.47;;
73823;SDS011;62154;54.914;73.444;2022-10-23T13:01:53;15.73;;;7.63;;
73823;SDS011;62154;54.914;73.444;2022-10-23T13:04:28;19.42;;;8.38;;
73823;SDS011;62154;54.914;73.444;2022-10-23T13:07:00;14.63;;;7.68;;
73823;SDS011;62154;54.914;73.444;2022-10-23T13:09:34;13.00;;;6.55;;
73823;SDS011;62154;54.914;73.444;2022-10-23T13:12:17;17.58;;;8.50;;
73823;SDS011;62154;54.914;73.444;2022-10-23T13:17:46;13.60;;;6.22;;
73823;SDS011;62154;54.914;73.444;2022-10-23T13:20:25;39.88;;;16.45;;
73823;SDS011;62154;54.914;73.444;2022-10-23T13:25:51;23.38;;;9.07;;
73823;SDS011;62154;54.914;73.444;2022-10-23T13:28:43;13.85;;;7.75;;
73823;SDS011;62154;54.914;73.444;2022-10-23T13:33:42;18.23;;;9.18;;
73823;SDS011;62154;54.914;73.444;2022-10-23T13:38:43;29.60;;;11.90;;
73823;SDS011;62154;54.914;73.444;2022-10-23T13:41:17;19.38;;;8.00;;
73823;SDS011;62154;54.914;73.444;2022-10-23T13:43:45;19.40;;;8.85;;
73823;SDS011;62154;54.914;73.444;2022-10-23T13:46:13;15.57;;;7.97;;
73823;SDS011;62154;54.914;73.444;2022-10-23T13:48:42;16.15;;;8.68;;
73823;SDS011;62154;54.914;73.444;2022-10-23T13:53:45;19.38;;;11.23;;
73823;SDS011;62154;54.914;73.444;2022-10-23T13:56:13;13.15;;;7.32;;
73823;SDS011;62154;54.914;73.444;2022-10-23T13:58:41;15.57;;;10.25;;
73823;SDS011;62154;54.914;73.444;2022-10-23T14:01:16;7.53;;;4.45;;
73823;SDS011;62154;54.914;73.444;2022-10-23T14:03:45;6.43;;;3.80;;
73823;SDS011;62154;54.914;73.444;2022-10-23T14:06:12;11.65;;;6.78;;
73823;SDS011;62154;54.914;73.444;2022-10-23T14:08:43;9.90;;;4.50;;
73823;SDS011;62154;54.914;73.444;2022-10-23T14:11:10;9.30;;;4.72;;
73823;SDS011;62154;54.914;73.444;2022-10-23T14:13:40;13.48;;;4.25;;
73823;SDS011;62154;54.914;73.444;2022-10-23T14:16:08;13.98;;;6.47;;
73823;SDS011;62154;54.914;73.444;2022-10-23T14:18:38;8.57;;;4.43;;
73823;SDS011;62154;54.914;73.444;2022-10-23T14:21:06;14.88;;;9.43;;
73823;SDS011;62154;54.914;73.444;2022-10-23T14:23:34;15.80;;;10.30;;
73823;SDS011;62154;54.914;73.444;2022-10-23T14:26:02;11.32;;;6.15;;
73823;SDS011;62154;54.914;73.444;2022-10-23T14:28:31;18.50;;;9.35;;
73823;SDS011;62154;54.914;73.444;2022-10-23T14:31:07;14.80;;;7.22;;
73823;SDS011;62154;54.914;73.444;2022-10-23T14:33:36;12.82;;;7.22;;
73823;SDS011;62154;54.914;73.444;2022-10-23T14:36:06;10.38;;;5.80;;
73823;SDS011;62154;54.914;73.444;2022-10-23T14:38:33;11.85;;;6.20;;
73823;SDS011;62154;54.914;73.444;2022-10-23T14:41:08;13.65;;;5.45;;
73823;SDS011;62154;54.914;73.444;2022-10-23T14:43:38;12.75;;;7.30;;
73823;SDS011;62154;54.914;73.444;2022-10-23T14:46:12;12.43;;;7.05;;
73823;SDS011;62154;54.914;73.444;2022-10-23T14:48:54;24.58;;;11.40;;
73823;SDS011;62154;54.914;73.444;2022-10-23T14:51:22;26.02;;;11.60;;
73823;SDS011;62154;54.914;73.444;2022-10-23T14:54:01;22.73;;;9.73;;
73823;SDS011;62154;54.914;73.444;2022-10-23T14:56:33;18.23;;;7.28;;
73823;SDS011;62154;54.914;73.444;2022-10-23T14:59:03;12.90;;;7.10;;
73823;SDS011;62154;54.914;73.444;2022-10-23T15:01:34;15.60;;;7.10;;
73823;SDS011;62154;54.914;73.444;2022-10-23T15:04:10;14.88;;;6.63;;
73823;SDS011;62154;54.914;73.444;2022-10-23T15:06:39;16.38;;;7.22;;
73823;SDS011;62154;54.914;73.444;2022-10-23T15:09:07;12.65;;;6.35;;
73823;SDS011;62154;54.914;73.444;2022-10-23T15:11:34;13.45;;;6.32;;
73823;SDS011;62154;54.914;73.444;2022-10-23T15:14:01;17.75;;;8.48;;
73823;SDS011;62154;54.914;73.444;2022-10-23T15:16:31;21.73;;;9.40;;
73823;SDS011;62154;54.914;73.444;2022-10-23T15:18:59;16.38;;;9.35;;
73823;SDS011;62154;54.914;73.444;2022-10-23T15:21:25;12.02;;;7.78;;
73823;SDS011;62154;54.914;73.444;2022-10-23T15:24:03;14.00;;;7.25;;
73823;SDS011;62154;54.914;73.444;2022-10-23T15:26:30;25.85;;;10.52;;
73823;SDS011;62154;54.914;73.444;2022-10-23T15:28:58;20.52;;;8.15;;
73823;SDS011;62154;54.914;73.444;2022-10-23T15:34:06;25.52;;;12.32;;
73823;SDS011;62154;54.914;73.444;2022-10-23T15:36:34;128.02;;;34.78;;
73823;SDS011;62154;54.914;73.444;2022-10-23T15:39:02;47.97;;;19.58;;
73823;SDS011;62154;54.914;73.444;2022-10-23T15:41:36;26.77;;;12.43;;
73823;SDS011;62154;54.914;73.444;2022-10-23T15:44:07;16.00;;;7.80;;
73823;SDS011;62154;54.914;73.444;2022-10-23T15:46:37;34.03;;;14.40;;
73823;SDS011;62154;54.914;73.444;2022-10-23T15:49:04;18.63;;;10.23;;
73823;SDS011;62154;54.914;73.444;2022-10-23T15:51:33;14.18;;;7.80;;
73823;SDS011;62154;54.914;73.444;2022-10-23T15:54:02;13.20;;;8.40;;
73823;SDS011;62154;54.914;73.444;2022-10-23T15:56:31;32.35;;;14.63;;
73823;SDS011;62154;54.914;73.444;2022-10-23T15:58:59;25.55;;;11.75;;
73823;SDS011;62154;54.914;73.444;2022-10-23T16:01:26;18.92;;;7.50;;
73823;SDS011;62154;54.914;73.444;2022-10-23T16:03:58;25.65;;;11.88;;
73823;SDS011;62154;54.914;73.444;2022-10-23T16:06:27;11.68;;;6.43;;
73823;SDS011;62154;54.914;73.444;2022-10-23T16:08:54;15.35;;;8.15;;
73823;SDS011;62154;54.914;73.444;2022-10-23T16:11:25;15.27;;;7.70;;
73823;SDS011;62154;54.914;73.444;2022-10-23T16:13:57;19.35;;;8.25;;
73823;SDS011;62154;54.914;73.444;2022-10-23T16:16:26;17.45;;;6.22;;
73823;SDS011;62154;54.914;73.444;2022-10-23T16:18:54;14.20;;;6.72;;
73823;SDS011;62154;54.914;73.444;2022-10-23T16:21:24;13.82;;;6.82;;
73823;SDS011;62154;54.914;73.444;2022-10-23T16:23:54;36.40;;;14.85;;
73823;SDS011;62154;54.914;73.444;2022-10-23T16:26:22;13.55;;;8.20;;
73823;SDS011;62154;54.914;73.444;2022-10-23T16:28:55;15.57;;;8.00;;
73823;SDS011;62154;54.914;73.444;2022-10-23T16:31:25;18.17;;;9.85;;
73823;SDS011;62154;54.914;73.444;2022-10-23T16:33:53;15.02;;;8.25;;
73823;SDS011;62154;54.914;73.444;2022-10-23T16:36:22;10.90;;;6.30;;
73823;SDS011;62154;54.914;73.444;2022-10-23T16:39:16;13.73;;;7.30;;
73823;SDS011;62154;54.914;73.444;2022-10-23T16:42:08;12.48;;;6.75;;
73823;SDS011;62154;54.914;73.444;2022-10-23T16:44:58;11.05;;;6.20;;
73823;SDS011;62154;54.914;73.444;2022-10-23T16:47:25;11.57;;;6.57;;
73823;SDS011;62154;54.914;73.444;2022-10-23T16:49:53;11.65;;;5.40;;
73823;SDS011;62154;54.914;73.444;2022-10-23T16:52:21;10.32;;;5.90;;
73823;SDS011;62154;54.914;73.444;2022-10-23T16:54:48;11.73;;;6.10;;
73823;SDS011;62154;54.914;73.444;2022-10-23T16:57:15;14.30;;;7.32;;
73823;SDS011;62154;54.914;73.444;2022-10-23T16:59:42;10.85;;;5.82;;
73823;SDS011;62154;54.914;73.444;2022-10-23T17:02:12;12.45;;;6.47;;
73823;SDS011;62154;54.914;73.444;2022-10-23T17:04:39;10.52;;;5.13;;
73823;SDS011;62154;54.914;73.444;2022-10-23T17:07:06;15.40;;;7.72;;
73823;SDS011;62154;54.914;73.444;2022-10-23T17:09:33;14.43;;;8.07;;
73823;SDS011;62154;54.914;73.444;2022-10-23T17:12:00;11.25;;;6.97;;
73823;SDS011;62154;54.914;73.444;2022-10-23T17:14:27;11.90;;;7.10;;
73823;SDS011;62154;54.914;73.444;2022-10-23T17:16:55;13.15;;;7.13;;
73823;SDS011;62154;54.914;73.444;2022-10-23T17:19:27;27.70;;;9.95;;
73823;SDS011;62154;54.914;73.444;2022-10-23T17:21:56;36.35;;;10.68;;
73823;SDS011;62154;54.914;73.444;2022-10-23T17:24:24;63.03;;;23.65;;
73823;SDS011;62154;54.914;73.444;2022-10-23T17:26:51;32.15;;;17.40;;
73823;SDS011;62154;54.914;73.444;2022-10-23T17:29:19;18.88;;;8.82;;
73823;SDS011;62154;54.914;73.444;2022-10-23T17:31:47;22.52;;;10.98;;
73823;SDS011;62154;54.914;73.444;2022-10-23T17:34:17;30.75;;;11.82;;
73823;SDS011;62154;54.914;73.444;2022-10-23T17:36:46;29.50;;;11.55;;
73823;SDS011;62154;54.914;73.444;2022-10-23T17:39:16;18.55;;;8.00;;